Time;durP1;ratioP1;P1;durP2;ratioP2;P2;SDS_P1;SDS_P2;PMS_P1;PMS_P2;Temp;Humidity;BMP_temperature;BMP_pressure;BME280_temperature;BME280_humidity;BME280_pressure;Samples;Min_cycle;Max_cycle;Signal;HPM_P1;HPM_P2
2024/01/19 00:00:28;;;;;;;;;24.00;20.25;;;;;;;;5058958;28;46213;-61
2024/01/19 00:02:53;;;;;;;;;19.00;15.33;;;;;;;;5056827;28;45585;-61
2024/01/19 00:05:19;;;;;;;;;19.33;18.67;;;;;;;;5058608;28;45368;-61
2024/01/19 00:07:45;;;;;;;;;20.75;20.00;;;;;;;;5058810;28;45629;-61
2024/01/19 00:10:10;;;;;;;;;24.00;22.67;;;;;;;;5052148;28;46351;-61
2024/01/19 00:12:35;;;;;;;;;24.33;22.00;;;;;;;;5053884;28;45430;-61
2024/01/19 00:15:01;;;;;;;;;25.25;24.25;;;;;;;;5059004;28;45454;-61
2024/01/19 00:17:27;;;;;;;;;27.25;25.75;;;;;;;;5054245;28;45424;-61
2024/01/19 00:19:52;;;;;;;;;20.50;20.50;;;;;;;;5048117;28;45436;-61
2024/01/19 00:22:17;;;;;;;;;18.33;17.00;;;;;;;;5063091;28;45407;-61
2024/01/19 00:24:43;;;;;;;;;19.67;16.67;;;;;;;;5056536;28;45287;-60
2024/01/19 00:27:08;;;;;;;;;24.75;24.50;;;;;;;;5057449;28;45325;-60
2024/01/19 00:29:33;;;;;;;;;25.33;20.67;;;;;;;;5058223;28;45519;-61
2024/01/19 00:31:58;;;;;;;;;31.00;24.00;;;;;;;;5058962;28;45424;-60
2024/01/19 00:34:24;;;;;;;;;28.33;27.00;;;;;;;;5040579;28;45468;-61
2024/01/19 00:36:49;;;;;;;;;19.50;19.50;;;;;;;;5059656;28;45470;-60
2024/01/19 00:39:14;;;;;;;;;21.33;21.33;;;;;;;;5061798;28;45626;-61
2024/01/19 00:41:40;;;;;;;;;27.50;22.25;;;;;;;;5061930;28;45308;-61
2024/01/19 00:44:05;;;;;;;;;22.50;22.50;;;;;;;;5062143;28;45273;-61
2024/01/19 00:46:30;;;;;;;;;27.25;24.50;;;;;;;;5062067;28;45347;-61
2024/01/19 00:48:55;;;;;;;;;25.50;19.75;;;;;;;;5060217;28;46763;-61
2024/01/19 00:51:21;;;;;;;;;21.33;19.67;;;;;;;;5055230;28;45543;-60
2024/01/19 00:53:46;;;;;;;;;26.67;23.00;;;;;;;;5050064;28;45516;-60
2024/01/19 00:56:11;;;;;;;;;23.67;23.67;;;;;;;;5028878;28;45388;-61
2024/01/19 00:58:40;;;;;;;;;32.33;25.67;;;;;;;;5061510;28;45474;-60
2024/01/19 01:01:05;;;;;;;;;27.00;23.75;;;;;;;;5061582;28;45886;-61
2024/01/19 01:03:31;;;;;;;;;29.00;22.33;;;;;;;;5061985;28;45221;-60
2024/01/19 01:05:57;;;;;;;;;29.75;18.75;;;;;;;;5061256;28;45757;-61
2024/01/19 01:08:23;;;;;;;;;24.00;23.00;;;;;;;;5061698;28;45517;-60
2024/01/19 01:10:48;;;;;;;;;28.00;27.00;;;;;;;;5040242;28;45809;-60
2024/01/19 01:13:14;;;;;;;;;30.00;23.67;;;;;;;;5060482;28;45462;-61
2024/01/19 01:15:40;;;;;;;;;28.00;23.00;;;;;;;;5061314;28;45237;-60
2024/01/19 01:18:05;;;;;;;;;28.00;25.25;;;;;;;;5056507;28;46554;-61
2024/01/19 01:20:30;;;;;;;;;23.00;23.00;;;;;;;;5040368;28;45337;-60
2024/01/19 01:22:55;;;;;;;;;25.33;22.33;;;;;;;;5061280;28;45384;-61
2024/01/19 01:25:20;;;;;;;;;22.33;20.33;;;;;;;;5061059;28;45605;-61
2024/01/19 01:27:46;;;;;;;;;26.67;26.33;;;;;;;;5042508;28;47147;-60
2024/01/19 01:30:11;;;;;;;;;25.33;21.33;;;;;;;;5061438;28;45405;-61
2024/01/19 01:32:36;;;;;;;;;18.67;16.00;;;;;;;;5043324;28;45488;-60
2024/01/19 01:35:02;;;;;;;;;23.33;17.00;;;;;;;;5038985;28;45545;-61
2024/01/19 01:37:27;;;;;;;;;20.00;20.00;;;;;;;;5058708;28;46037;-61
2024/01/19 01:39:52;;;;;;;;;24.67;23.00;;;;;;;;5042920;28;45570;-60
2024/01/19 01:42:18;;;;;;;;;26.00;20.00;;;;;;;;5060957;28;45312;-60
2024/01/19 01:44:43;;;;;;;;;26.00;23.67;;;;;;;;5061160;28;45517;-60
2024/01/19 01:47:08;;;;;;;;;27.33;22.00;;;;;;;;5060494;28;45598;-60
2024/01/19 01:49:33;;;;;;;;;22.00;20.33;;;;;;;;5042162;28;45485;-60
2024/01/19 01:51:59;;;;;;;;;26.67;22.00;;;;;;;;5060736;28;45572;-61
2024/01/19 01:54:24;;;;;;;;;29.00;22.75;;;;;;;;5058617;28;45422;-60
2024/01/19 01:56:49;;;;;;;;;17.75;16.75;;;;;;;;5048396;28;46243;-60
2024/01/19 01:59:15;;;;;;;;;18.75;16.00;;;;;;;;5059771;28;45554;-60
2024/01/19 02:01:40;;;;;;;;;20.00;19.25;;;;;;;;5048968;28;45439;-61
2024/01/19 02:04:08;;;;;;;;;17.67;16.67;;;;;;;;5044856;28;45667;-61
2024/01/19 02:06:33;;;;;;;;;21.25;21.25;;;;;;;;5058995;28;46389;-60
2024/01/19 02:08:58;;;;;;;;;20.00;18.75;;;;;;;;5060629;28;45253;-61
2024/01/19 02:11:24;;;;;;;;;27.67;22.67;;;;;;;;5042486;28;45537;-60
2024/01/19 02:13:49;;;;;;;;;17.25;17.00;;;;;;;;5060498;28;45524;-60
2024/01/19 02:16:14;;;;;;;;;24.00;21.67;;;;;;;;5042116;28;48245;-60
2024/01/19 02:18:39;;;;;;;;;24.33;19.00;;;;;;;;5050905;28;45280;-60
2024/01/19 02:21:05;;;;;;;;;18.33;16.67;;;;;;;;5041699;28;45465;-61
2024/01/19 02:23:34;;;;;;;;;21.25;18.25;;;;;;;;5059819;28;45298;-60
2024/01/19 02:26:01;;;;;;;;;26.50;23.25;;;;;;;;5059021;28;45589;-60
2024/01/19 02:28:26;;;;;;;;;22.00;22.00;;;;;;;;5060243;28;45513;-60
2024/01/19 02:30:51;;;;;;;;;22.67;21.00;;;;;;;;5060390;28;45294;-61
2024/01/19 02:33:17;;;;;;;;;21.33;21.33;;;;;;;;5060494;28;45350;-60
2024/01/19 02:35:42;;;;;;;;;21.25;21.25;;;;;;;;5047240;28;45379;-61
2024/01/19 02:38:07;;;;;;;;;25.67;24.00;;;;;;;;5050493;28;45385;-61
2024/01/19 02:40:33;;;;;;;;;25.67;18.00;;;;;;;;5038681;28;45753;-60
2024/01/19 02:42:58;;;;;;;;;20.67;20.67;;;;;;;;5060172;28;45643;-60
2024/01/19 02:45:23;;;;;;;;;25.67;22.67;;;;;;;;5058459;28;46234;-60
2024/01/19 02:47:48;;;;;;;;;23.67;22.33;;;;;;;;5058785;28;45357;-60
2024/01/19 02:50:14;;;;;;;;;19.33;19.33;;;;;;;;5058472;28;45576;-60
2024/01/19 02:52:39;;;;;;;;;24.25;20.50;;;;;;;;5050347;28;45329;-60
2024/01/19 02:55:05;;;;;;;;;23.50;20.75;;;;;;;;5055610;28;45488;-60
2024/01/19 02:57:31;;;;;;;;;26.00;23.25;;;;;;;;5041536;28;46046;-60
2024/01/19 02:59:56;;;;;;;;;24.75;21.25;;;;;;;;5059947;28;45598;-60
2024/01/19 03:02:21;;;;;;;;;28.00;22.00;;;;;;;;5058276;28;45496;-60
2024/01/19 03:04:46;;;;;;;;;23.00;21.33;;;;;;;;5059667;28;45416;-60
2024/01/19 03:07:12;;;;;;;;;18.33;16.67;;;;;;;;5059710;28;45509;-60
2024/01/19 03:09:38;;;;;;;;;24.00;20.25;;;;;;;;5058083;28;45771;-60
2024/01/19 03:12:03;;;;;;;;;19.67;18.00;;;;;;;;5056246;28;45500;-60
2024/01/19 03:14:28;;;;;;;;;24.75;22.00;;;;;;;;5059444;28;45358;-60
2024/01/19 03:16:54;;;;;;;;;19.25;19.25;;;;;;;;5059570;28;45347;-60
2024/01/19 03:19:19;;;;;;;;;25.67;21.00;;;;;;;;5046236;28;45393;-61
2024/01/19 03:21:44;;;;;;;;;23.33;22.33;;;;;;;;5063194;28;45454;-61
2024/01/19 03:24:09;;;;;;;;;17.25;16.25;;;;;;;;5059274;28;45510;-60
2024/01/19 03:26:35;;;;;;;;;22.00;19.00;;;;;;;;5057477;28;45292;-60
2024/01/19 03:29:00;;;;;;;;;21.00;16.67;;;;;;;;5059215;28;45417;-60
2024/01/19 03:31:25;;;;;;;;;20.75;17.25;;;;;;;;5059660;28;45376;-60
2024/01/19 03:33:50;;;;;;;;;20.00;15.67;;;;;;;;5059419;28;45505;-60
2024/01/19 03:36:16;;;;;;;;;24.00;22.67;;;;;;;;5059040;28;45427;-61
2024/01/19 03:38:41;;;;;;;;;22.67;21.33;;;;;;;;5040545;28;45346;-60
2024/01/19 03:41:06;;;;;;;;;21.67;17.33;;;;;;;;5059107;28;45421;-61
2024/01/19 03:43:33;;;;;;;;;17.67;16.00;;;;;;;;5058229;28;45641;-60
2024/01/19 03:45:58;;;;;;;;;20.00;20.00;;;;;;;;5059222;28;45778;-60
2024/01/19 03:48:23;;;;;;;;;22.00;20.00;;;;;;;;5059288;28;45530;-60
2024/01/19 03:50:48;;;;;;;;;18.67;16.67;;;;;;;;5054874;28;45503;-60
2024/01/19 03:53:14;;;;;;;;;19.33;18.33;;;;;;;;5058868;28;45476;-60
2024/01/19 03:55:39;;;;;;;;;19.33;19.00;;;;;;;;5054796;28;45477;-60
2024/01/19 03:58:04;;;;;;;;;23.00;20.67;;;;;;;;5058984;28;45387;-60
2024/01/19 04:00:29;;;;;;;;;23.00;18.67;;;;;;;;5058086;28;45537;-60
2024/01/19 04:02:54;;;;;;;;;20.33;18.00;;;;;;;;5058937;28;46446;-60
2024/01/19 04:05:20;;;;;;;;;23.00;21.33;;;;;;;;5058645;28;45347;-60
2024/01/19 04:07:45;;;;;;;;;25.75;22.75;;;;;;;;5058992;28;45311;-60
2024/01/19 04:10:10;;;;;;;;;19.33;19.33;;;;;;;;5056042;28;45292;-60
2024/01/19 04:12:35;;;;;;;;;21.33;19.33;;;;;;;;5058189;28;45628;-60
2024/01/19 04:15:01;;;;;;;;;26.33;19.33;;;;;;;;5058774;28;45596;-60
2024/01/19 04:17:26;;;;;;;;;23.00;18.33;;;;;;;;5058232;28;46831;-60
2024/01/19 04:19:51;;;;;;;;;18.33;17.33;;;;;;;;5044498;28;45532;-60
2024/01/19 04:22:16;;;;;;;;;22.00;19.67;;;;;;;;5040383;28;48265;-60
2024/01/19 04:24:41;;;;;;;;;21.33;21.33;;;;;;;;5058652;28;46012;-60
2024/01/19 04:27:07;;;;;;;;;20.00;19.00;;;;;;;;5058333;28;45543;-61
2024/01/19 04:29:32;;;;;;;;;31.33;24.33;;;;;;;;5039326;28;45709;-60
2024/01/19 04:31:57;;;;;;;;;26.00;23.00;;;;;;;;5057987;28;45640;-60
2024/01/19 04:34:22;;;;;;;;;14.33;13.33;;;;;;;;5058671;28;45328;-60
2024/01/19 04:36:47;;;;;;;;;23.00;22.25;;;;;;;;5040083;28;45696;-60
2024/01/19 04:39:13;;;;;;;;;22.00;20.33;;;;;;;;5056032;28;45549;-60
2024/01/19 04:41:38;;;;;;;;;19.67;19.00;;;;;;;;5056755;28;46148;-60
2024/01/19 04:44:03;;;;;;;;;21.33;19.33;;;;;;;;5056923;28;45291;-60
2024/01/19 04:46:28;;;;;;;;;19.00;19.00;;;;;;;;5058632;28;45495;-60
2024/01/19 04:48:54;;;;;;;;;23.67;21.33;;;;;;;;5047306;28;45489;-61
2024/01/19 04:51:19;;;;;;;;;22.50;16.50;;;;;;;;5054011;28;47375;-60
2024/01/19 04:53:45;;;;;;;;;22.25;21.00;;;;;;;;5058061;28;45398;-60
2024/01/19 04:56:10;;;;;;;;;20.67;18.67;;;;;;;;5057501;28;45410;-60
2024/01/19 04:58:36;;;;;;;;;23.33;19.00;;;;;;;;5058167;28;45469;-60
2024/01/19 05:01:01;;;;;;;;;22.25;20.00;;;;;;;;5058318;28;46288;-60
2024/01/19 05:03:26;;;;;;;;;27.75;23.50;;;;;;;;5038890;28;45662;-60
2024/01/19 05:05:52;;;;;;;;;25.67;18.33;;;;;;;;5057320;28;45589;-60
2024/01/19 05:08:17;;;;;;;;;27.25;26.50;;;;;;;;5057665;28;45436;-60
2024/01/19 05:10:43;;;;;;;;;26.33;24.00;;;;;;;;5047596;28;46139;-60
2024/01/19 05:13:08;;;;;;;;;26.75;22.25;;;;;;;;5039156;28;45351;-60
2024/01/19 05:15:33;;;;;;;;;28.00;25.00;;;;;;;;5058017;28;45435;-60
2024/01/19 05:18:00;;;;;;;;;22.00;21.67;;;;;;;;5036011;28;45638;-61
2024/01/19 05:20:25;;;;;;;;;19.00;17.50;;;;;;;;5029864;28;47785;-60
2024/01/19 05:22:50;;;;;;;;;21.33;20.33;;;;;;;;5067158;28;45392;-60
2024/01/19 05:25:18;;;;;;;;;22.00;21.00;;;;;;;;5081856;28;45570;-60
2024/01/19 05:27:43;;;;;;;;;23.00;21.75;;;;;;;;5080328;27;45427;-60
2024/01/19 05:30:09;;;;;;;;;27.50;24.25;;;;;;;;5062632;28;48550;-60
2024/01/19 05:32:34;;;;;;;;;26.00;21.25;;;;;;;;5062496;28;45535;-60
2024/01/19 05:34:59;;;;;;;;;27.25;24.00;;;;;;;;5081869;28;45693;-60
2024/01/19 05:37:26;;;;;;;;;24.00;19.67;;;;;;;;5061539;28;45346;-61
2024/01/19 05:39:51;;;;;;;;;14.00;12.25;;;;;;;;5062929;28;47094;-60
2024/01/19 05:42:16;;;;;;;;;20.00;20.00;;;;;;;;5081171;28;45331;-60
2024/01/19 05:44:42;;;;;;;;;25.33;24.00;;;;;;;;5081745;28;45450;-60
2024/01/19 05:47:07;;;;;;;;;26.25;23.25;;;;;;;;5073803;27;45550;-61
2024/01/19 05:49:32;;;;;;;;;25.67;23.00;;;;;;;;5078279;28;46282;-60
2024/01/19 05:51:57;;;;;;;;;22.67;20.33;;;;;;;;5079301;28;45263;-60
2024/01/19 05:54:23;;;;;;;;;24.33;20.00;;;;;;;;5078473;28;45382;-60
2024/01/19 05:56:48;;;;;;;;;19.50;18.00;;;;;;;;5080458;27;45303;-60
2024/01/19 05:59:13;;;;;;;;;31.00;26.33;;;;;;;;5075422;28;45394;-60
2024/01/19 06:01:38;;;;;;;;;30.00;25.33;;;;;;;;5079592;28;45638;-60
2024/01/19 06:04:04;;;;;;;;;24.33;23.67;;;;;;;;5081452;28;45458;-61
2024/01/19 06:06:29;;;;;;;;;25.33;20.33;;;;;;;;5079581;27;45347;-60
2024/01/19 06:08:54;;;;;;;;;27.33;22.67;;;;;;;;5080844;28;45555;-60
2024/01/19 06:11:19;;;;;;;;;28.33;26.00;;;;;;;;5075465;28;45413;-60
2024/01/19 06:13:45;;;;;;;;;23.67;21.33;;;;;;;;5059985;28;45375;-60
2024/01/19 06:16:11;;;;;;;;;29.00;22.50;;;;;;;;5075470;28;45464;-60
2024/01/19 06:18:36;;;;;;;;;26.67;24.33;;;;;;;;5077603;28;46298;-61
2024/01/19 06:21:01;;;;;;;;;25.00;19.00;;;;;;;;5069782;28;45619;-60
2024/01/19 06:23:26;;;;;;;;;33.50;28.50;;;;;;;;5048775;28;45449;-60
2024/01/19 06:25:52;;;;;;;;;29.00;27.00;;;;;;;;5060251;28;45437;-61
2024/01/19 06:28:17;;;;;;;;;31.75;26.50;;;;;;;;5058339;28;47347;-61
2024/01/19 06:30:42;;;;;;;;;25.67;24.33;;;;;;;;5058758;28;45413;-60
2024/01/19 06:33:07;;;;;;;;;26.50;24.25;;;;;;;;5060657;28;45352;-60
2024/01/19 06:35:33;;;;;;;;;34.50;29.00;;;;;;;;5059223;28;45654;-60
2024/01/19 06:37:58;;;;;;;;;29.25;26.50;;;;;;;;5053231;28;45402;-60
2024/01/19 06:40:24;;;;;;;;;32.25;29.25;;;;;;;;5058800;28;45417;-60
2024/01/19 06:42:49;;;;;;;;;23.67;23.00;;;;;;;;5041027;28;45508;-61
2024/01/19 06:45:16;;;;;;;;;21.00;21.00;;;;;;;;5041357;28;45513;-60
2024/01/19 06:47:41;;;;;;;;;33.75;29.00;;;;;;;;5059219;28;48076;-60
2024/01/19 06:50:06;;;;;;;;;33.67;29.67;;;;;;;;5053185;28;45283;-60
2024/01/19 06:52:32;;;;;;;;;31.75;26.75;;;;;;;;5059802;28;45405;-60
2024/01/19 07:01:27;;;;;;;;;36.75;32.25;;;;;;;;5039906;28;45445;-65
2024/01/19 07:07:37;;;;;;;;;43.75;35.00;;;;;;;;5050085;28;45660;-65
2024/01/19 07:13:41;;;;;;;;;;;;;;;;;;;;;
2024/01/19 07:16:07;;;;;;;;;24.00;23.25;;;;;;;;5058439;28;68581;-65
2024/01/19 07:18:33;;;;;;;;;32.00;30.00;;;;;;;;5054513;28;45743;-65
2024/01/19 07:20:59;;;;;;;;;31.75;28.75;;;;;;;;5066380;28;46224;-65
2024/01/19 07:23:24;;;;;;;;;27.33;26.00;;;;;;;;5040653;28;45324;-62
2024/01/19 07:25:49;;;;;;;;;98.00;73.00;;;;;;;;5058570;28;45458;-60
2024/01/19 07:28:14;;;;;;;;;93.00;69.33;;;;;;;;5054846;28;45506;-58
2024/01/19 07:30:39;;;;;;;;;37.33;33.67;;;;;;;;5059334;28;46236;-58
2024/01/19 07:33:05;;;;;;;;;45.33;37.67;;;;;;;;5040648;28;45459;-58
2024/01/19 07:35:30;;;;;;;;;32.67;28.67;;;;;;;;5058991;28;45723;-59
2024/01/19 07:37:55;;;;;;;;;26.00;25.67;;;;;;;;5049885;28;45571;-58
2024/01/19 07:40:20;;;;;;;;;41.00;36.00;;;;;;;;5058889;28;46114;-58
2024/01/19 07:42:46;;;;;;;;;71.67;56.00;;;;;;;;5057273;28;45411;-59
2024/01/19 07:45:11;;;;;;;;;78.00;60.75;;;;;;;;5056335;28;46934;-59
2024/01/19 07:47:36;;;;;;;;;74.33;60.00;;;;;;;;5052364;28;45272;-58
2024/01/19 07:50:04;;;;;;;;;75.00;58.00;;;;;;;;5045198;28;45505;-59
2024/01/19 07:52:29;;;;;;;;;61.75;51.00;;;;;;;;5059234;28;45411;-59
2024/01/19 07:54:55;;;;;;;;;63.00;49.33;;;;;;;;5056879;28;45509;-63
2024/01/19 07:57:20;;;;;;;;;64.00;50.33;;;;;;;;5058774;28;45251;-59
2024/01/19 07:59:45;;;;;;;;;46.00;40.33;;;;;;;;5056060;28;46220;-59
2024/01/19 08:02:10;;;;;;;;;38.67;35.67;;;;;;;;5039823;28;45337;-59
2024/01/19 08:04:35;;;;;;;;;40.67;37.33;;;;;;;;5038670;28;45520;-59
2024/01/19 08:07:01;;;;;;;;;70.67;53.67;;;;;;;;5040986;28;45636;-59
2024/01/19 08:09:26;;;;;;;;;67.00;56.67;;;;;;;;5052129;28;46664;-59
2024/01/19 08:11:51;;;;;;;;;88.33;67.67;;;;;;;;5032613;28;45681;-59
2024/01/19 08:14:16;;;;;;;;;96.33;74.33;;;;;;;;5027373;28;46019;-59
2024/01/19 08:16:42;;;;;;;;;76.00;59.00;;;;;;;;5027689;28;45810;-58
2024/01/19 08:19:07;;;;;;;;;72.00;55.50;;;;;;;;5045124;28;46123;-59
2024/01/19 08:21:32;;;;;;;;;39.67;33.33;;;;;;;;5052842;28;45358;-59
2024/01/19 08:23:57;;;;;;;;;44.00;39.67;;;;;;;;5036338;28;45805;-59
2024/01/19 08:26:22;;;;;;;;;40.33;36.67;;;;;;;;5037125;28;45768;-59
2024/01/19 08:28:48;;;;;;;;;40.33;37.67;;;;;;;;5050560;28;46223;-60
2024/01/19 08:31:13;;;;;;;;;43.00;40.67;;;;;;;;5038521;28;46254;-60
2024/01/19 08:33:38;;;;;;;;;34.75;30.75;;;;;;;;5047136;28;45376;-60
2024/01/19 08:36:04;;;;;;;;;42.33;35.67;;;;;;;;5047630;28;45392;-60
2024/01/19 08:38:29;;;;;;;;;35.00;32.00;;;;;;;;5049274;28;46810;-60
2024/01/19 08:40:54;;;;;;;;;40.67;35.00;;;;;;;;5053108;28;45442;-60
2024/01/19 08:43:19;;;;;;;;;38.33;32.33;;;;;;;;5052452;28;45384;-59
2024/01/19 08:45:45;;;;;;;;;39.00;35.00;;;;;;;;5035465;28;45695;-61
2024/01/19 08:48:10;;;;;;;;;35.67;31.67;;;;;;;;5038678;28;47141;-60
2024/01/19 08:50:35;;;;;;;;;35.00;32.00;;;;;;;;5037865;28;45768;-60
2024/01/19 08:53:01;;;;;;;;;36.00;32.00;;;;;;;;5057048;28;45452;-60
2024/01/19 08:55:27;;;;;;;;;35.25;31.50;;;;;;;;5055798;28;45515;-60
2024/01/19 08:57:52;;;;;;;;;48.00;38.00;;;;;;;;5033271;28;48639;-60
2024/01/19 09:00:17;;;;;;;;;40.33;39.00;;;;;;;;5036182;28;45367;-60
2024/01/19 09:02:42;;;;;;;;;41.00;39.00;;;;;;;;5041339;28;45507;-60
2024/01/19 09:05:09;;;;;;;;;38.00;36.00;;;;;;;;5056409;28;45634;-60
2024/01/19 09:07:35;;;;;;;;;37.50;34.25;;;;;;;;5029607;28;47377;-60
2024/01/19 09:10:00;;;;;;;;;48.67;36.00;;;;;;;;5054954;28;45654;-60
2024/01/19 09:12:27;;;;;;;;;43.67;40.00;;;;;;;;5054523;28;45391;-60
2024/01/19 09:14:53;;;;;;;;;45.75;40.25;;;;;;;;5055181;28;45518;-60
2024/01/19 09:17:18;;;;;;;;;37.25;37.00;;;;;;;;5045855;28;45559;-60
2024/01/19 09:19:43;;;;;;;;;50.00;42.33;;;;;;;;5034925;28;45579;-60
2024/01/19 09:22:08;;;;;;;;;42.67;34.67;;;;;;;;5052490;28;45728;-60
2024/01/19 09:24:33;;;;;;;;;41.00;36.33;;;;;;;;5044886;28;45372;-59
2024/01/19 09:26:58;;;;;;;;;39.00;36.00;;;;;;;;5053058;28;46754;-61
2024/01/19 09:29:24;;;;;;;;;33.67;32.67;;;;;;;;5045848;28;45440;-59
2024/01/19 09:31:49;;;;;;;;;40.00;36.00;;;;;;;;5059394;28;45407;-60
2024/01/19 09:34:14;;;;;;;;;42.67;36.67;;;;;;;;5044434;28;45872;-61
2024/01/19 09:36:40;;;;;;;;;37.50;33.75;;;;;;;;5034379;28;46244;-60
2024/01/19 09:39:06;;;;;;;;;41.25;36.50;;;;;;;;5059610;28;45383;-59
2024/01/19 09:41:36;;;;;;;;;37.25;36.75;;;;;;;;5017924;28;45523;-59
2024/01/19 09:44:05;;;;;;;;;53.00;42.25;;;;;;;;5055562;28;45451;-59
2024/01/19 09:46:31;;;;;;;;;19.75;18.50;;;;;;;;5032752;28;48388;-59
2024/01/19 09:49:00;;;;;;;;;49.00;41.50;;;;;;;;5054535;28;45773;-59
2024/01/19 09:51:33;;;;;;;;;50.25;42.00;;;;;;;;5053725;28;45393;-59
2024/01/19 09:53:59;;;;;;;;;53.75;46.00;;;;;;;;5050259;28;45631;-59
2024/01/19 09:56:24;;;;;;;;;45.75;40.75;;;;;;;;5054240;28;48362;-59
2024/01/19 09:58:50;;;;;;;;;50.00;41.00;;;;;;;;5058916;28;45272;-59
2024/01/19 10:01:15;;;;;;;;;47.00;39.00;;;;;;;;5053257;28;45602;-59
2024/01/19 10:03:40;;;;;;;;;49.33;43.67;;;;;;;;5051602;28;45412;-59
2024/01/19 10:06:05;;;;;;;;;50.00;43.33;;;;;;;;5034659;28;48123;-59
2024/01/19 10:08:30;;;;;;;;;52.67;41.67;;;;;;;;5033596;28;45950;-59
2024/01/19 10:10:56;;;;;;;;;46.67;42.67;;;;;;;;5055307;28;45261;-59
2024/01/19 10:13:21;;;;;;;;;44.25;42.50;;;;;;;;5037681;28;45444;-59
2024/01/19 10:15:47;;;;;;;;;51.67;43.00;;;;;;;;5056244;28;46697;-60
2024/01/19 10:18:13;;;;;;;;;48.00;41.00;;;;;;;;5029374;28;45429;-60
2024/01/19 10:20:39;;;;;;;;;52.25;45.00;;;;;;;;5034635;28;45501;-60
2024/01/19 10:23:23;;;;;;;;;49.75;41.75;;;;;;;;5029141;28;45611;-59
2024/01/19 10:25:49;;;;;;;;;41.75;38.00;;;;;;;;5033629;28;45717;-59
2024/01/19 10:28:30;;;;;;;;;46.25;42.75;;;;;;;;5037427;28;45542;-59
2024/01/19 10:31:12;;;;;;;;;47.00;41.00;;;;;;;;5029355;28;45482;-59
2024/01/19 10:33:37;;;;;;;;;51.00;42.75;;;;;;;;5031678;28;46125;-59
2024/01/19 10:36:02;;;;;;;;;47.67;41.67;;;;;;;;5033248;28;45537;-60
2024/01/19 10:38:28;;;;;;;;;46.50;41.75;;;;;;;;5030997;28;45354;-59
2024/01/19 10:40:53;;;;;;;;;41.00;37.33;;;;;;;;5036406;28;45632;-59
2024/01/19 10:43:21;;;;;;;;;39.33;35.33;;;;;;;;5030117;28;45904;-59
2024/01/19 10:45:46;;;;;;;;;43.25;40.75;;;;;;;;5026890;28;47479;-59
2024/01/19 10:48:25;;;;;;;;;49.67;40.33;;;;;;;;5031764;28;45332;-59
2024/01/19 10:51:00;;;;;;;;;38.75;37.50;;;;;;;;5034362;28;45504;-59
2024/01/19 10:53:25;;;;;;;;;45.25;40.75;;;;;;;;5026236;28;45498;-59
2024/01/19 10:55:51;;;;;;;;;43.33;39.33;;;;;;;;5037176;28;45462;-59
2024/01/19 10:58:16;;;;;;;;;50.33;43.00;;;;;;;;5031397;28;45527;-59
2024/01/19 11:00:41;;;;;;;;;44.00;37.00;;;;;;;;5028406;28;45639;-60
2024/01/19 11:03:07;;;;;;;;;44.75;38.00;;;;;;;;5033969;28;45529;-59
2024/01/19 11:05:32;;;;;;;;;41.00;37.75;;;;;;;;5031919;28;45461;-59
2024/01/19 11:07:59;;;;;;;;;42.75;38.25;;;;;;;;5035547;28;45609;-60
2024/01/19 11:10:25;;;;;;;;;41.50;39.50;;;;;;;;5037785;28;45577;-59
2024/01/19 11:12:58;;;;;;;;;44.00;39.00;;;;;;;;5035290;28;45512;-60
2024/01/19 11:15:47;;;;;;;;;40.00;35.00;;;;;;;;5034596;28;47408;-59
2024/01/19 11:18:14;;;;;;;;;44.50;33.75;;;;;;;;5020052;28;45394;-59
2024/01/19 11:20:39;;;;;;;;;39.00;34.00;;;;;;;;5029144;28;45311;-60
2024/01/19 11:23:05;;;;;;;;;38.33;38.00;;;;;;;;5060948;28;45576;-59
2024/01/19 11:25:49;;;;;;;;;38.75;35.00;;;;;;;;5063673;28;46016;-59
2024/01/19 11:28:32;;;;;;;;;40.75;39.50;;;;;;;;5059096;28;45877;-60
2024/01/19 11:30:58;;;;;;;;;38.25;36.75;;;;;;;;5076938;28;45457;-59
2024/01/19 11:33:28;;;;;;;;;36.67;36.67;;;;;;;;5060867;28;45495;-59
2024/01/19 11:35:54;;;;;;;;;35.00;33.00;;;;;;;;5076699;28;45486;-59
2024/01/19 11:38:36;;;;;;;;;38.67;33.33;;;;;;;;5077546;28;45366;-59
2024/01/19 11:41:05;;;;;;;;;35.75;32.25;;;;;;;;5066946;28;45398;-59
2024/01/19 11:43:36;;;;;;;;;40.75;38.25;;;;;;;;5078622;28;45578;-59
2024/01/19 11:46:02;;;;;;;;;41.50;36.75;;;;;;;;5067810;27;46440;-59
2024/01/19 11:48:40;;;;;;;;;41.33;36.33;;;;;;;;5069156;27;45502;-59
2024/01/19 11:51:06;;;;;;;;;42.50;40.25;;;;;;;;5054356;28;45534;-59
2024/01/19 11:53:50;;;;;;;;;39.25;36.25;;;;;;;;5077519;28;45493;-59
2024/01/19 11:56:24;;;;;;;;;34.50;29.50;;;;;;;;5073765;28;46662;-59
2024/01/19 11:58:50;;;;;;;;;29.00;27.00;;;;;;;;5060071;28;45277;-59
2024/01/19 12:01:15;;;;;;;;;32.25;29.00;;;;;;;;5060005;28;45362;-60
2024/01/19 12:03:41;;;;;;;;;34.67;34.33;;;;;;;;5076865;28;45453;-59
2024/01/19 12:06:07;;;;;;;;;37.50;34.00;;;;;;;;5061840;28;46119;-59
2024/01/19 12:08:32;;;;;;;;;33.25;30.50;;;;;;;;5056174;28;45868;-59
2024/01/19 12:11:05;;;;;;;;;36.75;33.00;;;;;;;;5056440;28;45618;-59
2024/01/19 12:13:31;;;;;;;;;37.00;31.00;;;;;;;;5055242;28;45976;-60
2024/01/19 12:15:57;;;;;;;;;24.75;22.25;;;;;;;;5044671;28;46427;-60
2024/01/19 12:18:22;;;;;;;;;25.00;19.25;;;;;;;;5055830;28;45545;-59
2024/01/19 12:20:52;;;;;;;;;18.50;17.75;;;;;;;;5050740;28;45481;-59
2024/01/19 12:23:18;;;;;;;;;17.50;13.25;;;;;;;;5067720;28;45459;-60
2024/01/19 12:25:44;;;;;;;;;17.00;14.25;;;;;;;;5071032;28;45700;-60
2024/01/19 12:28:09;;;;;;;;;18.00;17.67;;;;;;;;5073489;28;45696;-60
2024/01/19 12:30:35;;;;;;;;;10.33;10.33;;;;;;;;5068329;28;45457;-60
2024/01/19 12:33:17;;;;;;;;;19.00;18.50;;;;;;;;5064702;27;45769;-62
2024/01/19 12:35:45;;;;;;;;;19.50;18.25;;;;;;;;5051243;28;47560;-59
2024/01/19 12:38:10;;;;;;;;;18.00;14.50;;;;;;;;5073785;28;45774;-59
2024/01/19 12:40:36;;;;;;;;;14.00;13.00;;;;;;;;5058293;28;45358;-59
2024/01/19 12:43:02;;;;;;;;;18.00;15.50;;;;;;;;5077212;28;45438;-59
2024/01/19 12:45:28;;;;;;;;;16.75;15.25;;;;;;;;5066810;28;46145;-59
2024/01/19 12:47:53;;;;;;;;;19.50;16.25;;;;;;;;5056259;28;45971;-59
2024/01/19 12:50:18;;;;;;;;;12.25;12.25;;;;;;;;5072487;27;45699;-59
2024/01/19 12:52:43;;;;;;;;;18.67;16.67;;;;;;;;5074474;28;45721;-59
2024/01/19 12:55:09;;;;;;;;;19.00;16.00;;;;;;;;5073698;28;45605;-59
2024/01/19 12:57:34;;;;;;;;;22.00;18.00;;;;;;;;5068094;28;45431;-59
2024/01/19 13:00:11;;;;;;;;;17.00;14.00;;;;;;;;5075886;28;45552;-59
2024/01/19 13:02:36;;;;;;;;;20.75;15.50;;;;;;;;5059759;28;45446;-58
2024/01/19 13:05:02;;;;;;;;;14.75;12.50;;;;;;;;5070859;28;45716;-59
2024/01/19 13:07:27;;;;;;;;;14.25;14.25;;;;;;;;5068190;28;45445;-59
2024/01/19 13:10:03;;;;;;;;;11.67;11.67;;;;;;;;5053821;28;45712;-59
2024/01/19 13:12:28;;;;;;;;;13.00;12.25;;;;;;;;5072132;27;45636;-59
2024/01/19 13:15:02;;;;;;;;;15.00;14.33;;;;;;;;5072735;27;45442;-59
2024/01/19 13:17:27;;;;;;;;;13.75;11.75;;;;;;;;5046667;28;45787;-59
2024/01/19 13:19:52;;;;;;;;;19.00;17.67;;;;;;;;5072958;28;45784;-59
2024/01/19 13:22:17;;;;;;;;;19.33;16.67;;;;;;;;5071611;28;45658;-59
2024/01/19 13:24:44;;;;;;;;;15.00;14.00;;;;;;;;5055253;28;48497;-59
2024/01/19 13:27:11;;;;;;;;;19.25;14.00;;;;;;;;5054454;28;45442;-59
2024/01/19 13:29:36;;;;;;;;;15.00;14.00;;;;;;;;5068005;28;45671;-59
2024/01/19 13:32:02;;;;;;;;;15.00;14.00;;;;;;;;5054635;28;45697;-59
2024/01/19 13:34:27;;;;;;;;;18.50;14.00;;;;;;;;5055614;28;46343;-59
2024/01/19 13:36:52;;;;;;;;;18.25;14.00;;;;;;;;5061863;28;45640;-59
2024/01/19 13:39:18;;;;;;;;;15.75;15.00;;;;;;;;5063657;28;45516;-59
2024/01/19 13:41:43;;;;;;;;;15.67;12.00;;;;;;;;5073115;28;45784;-60
2024/01/19 13:44:08;;;;;;;;;14.67;14.00;;;;;;;;5043599;27;47234;-60
2024/01/19 13:46:33;;;;;;;;;14.33;14.00;;;;;;;;5076106;27;45808;-60
2024/01/19 13:48:59;;;;;;;;;15.00;12.33;;;;;;;;5076105;28;46100;-59
2024/01/19 13:51:24;;;;;;;;;18.67;17.00;;;;;;;;5058167;28;45473;-59
2024/01/19 13:53:49;;;;;;;;;15.00;14.25;;;;;;;;5058383;28;47217;-60
2024/01/19 13:56:14;;;;;;;;;18.00;18.00;;;;;;;;5068370;28;45729;-60
2024/01/19 13:58:40;;;;;;;;;20.00;16.75;;;;;;;;5076534;28;45624;-59
2024/01/19 14:01:06;;;;;;;;;15.33;12.33;;;;;;;;5074446;28;45544;-60
2024/01/19 14:03:32;;;;;;;;;15.25;14.25;;;;;;;;5075894;28;45738;-60
2024/01/19 14:05:57;;;;;;;;;16.75;15.25;;;;;;;;5052414;28;45704;-60
2024/01/19 14:08:23;;;;;;;;;20.25;17.50;;;;;;;;5053062;28;45742;-59
2024/01/19 14:10:49;;;;;;;;;18.50;16.25;;;;;;;;5069479;27;45469;-60
2024/01/19 14:13:15;;;;;;;;;19.25;15.75;;;;;;;;5052415;28;47070;-60
2024/01/19 14:15:40;;;;;;;;;13.75;12.25;;;;;;;;5074640;27;45391;-59
2024/01/19 14:18:06;;;;;;;;;12.25;12.25;;;;;;;;5065766;28;46071;-60
2024/01/19 14:20:31;;;;;;;;;9.67;7.00;;;;;;;;5063007;28;45463;-60
2024/01/19 14:22:56;;;;;;;;;8.67;8.67;;;;;;;;5057069;28;46906;-60
2024/01/19 14:25:21;;;;;;;;;14.00;13.00;;;;;;;;5057927;28;46218;-60